sensor_id;sensor_type;location;lat;lon;timestamp;temperature;humidity
36384;DHT22;22418;51.210;6.976;2023-08-06T00:02:24;16.80;99.90
36384;DHT22;22418;51.210;6.976;2023-08-06T00:04:55;16.80;99.90
36384;DHT22;22418;51.210;6.976;2023-08-06T00:07:25;16.80;99.90
36384;DHT22;22418;51.210;6.976;2023-08-06T00:09:57;16.80;99.90
36384;DHT22;22418;51.210;6.976;2023-08-06T00:12:28;16.90;99.90
36384;DHT22;22418;51.210;6.976;2023-08-06T00:14:58;16.90;99.90
36384;DHT22;22418;51.210;6.976;2023-08-06T00:17:29;16.90;99.90
36384;DHT22;22418;51.210;6.976;2023-08-06T00:19:59;16.80;99.90
36384;DHT22;22418;51.210;6.976;2023-08-06T00:22:35;16.70;99.90
36384;DHT22;22418;51.210;6.976;2023-08-06T00:25:06;16.80;99.90
36384;DHT22;22418;51.210;6.976;2023-08-06T00:27:36;16.70;99.90
36384;DHT22;22418;51.210;6.976;2023-08-06T00:30:07;16.70;99.90
36384;DHT22;22418;51.210;6.976;2023-08-06T00:32:38;16.70;99.90
36384;DHT22;22418;51.210;6.976;2023-08-06T00:35:08;16.70;99.90
36384;DHT22;22418;51.210;6.976;2023-08-06T00:37:39;16.60;99.90
36384;DHT22;22418;51.210;6.976;2023-08-06T00:40:09;16.70;99.90
36384;DHT22;22418;51.210;6.976;2023-08-06T00:42:40;16.60;99.90
36384;DHT22;22418;51.210;6.976;2023-08-06T00:45:10;16.60;99.90
36384;DHT22;22418;51.210;6.976;2023-08-06T00:47:41;16.60;99.90
36384;DHT22;22418;51.210;6.976;2023-08-06T00:50:11;16.50;99.90
36384;DHT22;22418;51.210;6.976;2023-08-06T00:52:42;16.50;99.90
36384;DHT22;22418;51.210;6.976;2023-08-06T00:55:12;16.40;99.90
36384;DHT22;22418;51.210;6.976;2023-08-06T00:57:43;16.40;99.90
36384;DHT22;22418;51.210;6.976;2023-08-06T01:00:14;16.40;99.90
36384;DHT22;22418;51.210;6.976;2023-08-06T01:02:44;16.40;99.90
36384;DHT22;22418;51.210;6.976;2023-08-06T01:05:15;16.40;99.90
36384;DHT22;22418;51.210;6.976;2023-08-06T01:10:21;16.40;99.90
36384;DHT22;22418;51.210;6.976;2023-08-06T01:13:01;16.40;99.90
36384;DHT22;22418;51.210;6.976;2023-08-06T01:16:17;16.50;99.90
36384;DHT22;22418;51.210;6.976;2023-08-06T01:18:28;16.40;99.90
36384;DHT22;22418;51.210;6.976;2023-08-06T01:20:58;16.40;99.90
36384;DHT22;22418;51.210;6.976;2023-08-06T01:23:28;16.40;99.90
36384;DHT22;22418;51.210;6.976;2023-08-06T01:26:05;16.40;99.90
36384;DHT22;22418;51.210;6.976;2023-08-06T01:31:19;16.50;99.90
36384;DHT22;22418;51.210;6.976;2023-08-06T01:33:52;16.50;99.90
36384;DHT22;22418;51.210;6.976;2023-08-06T01:36:23;16.50;99.90
36384;DHT22;22418;51.210;6.976;2023-08-06T01:38:54;16.40;99.90
36384;DHT22;22418;51.210;6.976;2023-08-06T01:41:24;16.50;99.90
36384;DHT22;22418;51.210;6.976;2023-08-06T01:43:55;16.40;99.90
36384;DHT22;22418;51.210;6.976;2023-08-06T01:46:25;16.50;99.90
36384;DHT22;22418;51.210;6.976;2023-08-06T01:48:56;16.40;99.90
36384;DHT22;22418;51.210;6.976;2023-08-06T01:51:26;16.40;99.90
36384;DHT22;22418;51.210;6.976;2023-08-06T01:53:57;16.40;99.90
36384;DHT22;22418;51.210;6.976;2023-08-06T01:56:27;16.30;99.90
36384;DHT22;22418;51.210;6.976;2023-08-06T01:58:58;16.30;99.90
36384;DHT22;22418;51.210;6.976;2023-08-06T02:01:28;16.40;99.90
36384;DHT22;22418;51.210;6.976;2023-08-06T02:03:59;16.40;99.90
36384;DHT22;22418;51.210;6.976;2023-08-06T02:06:29;16.40;99.90
36384;DHT22;22418;51.210;6.976;2023-08-06T02:09:00;16.40;99.90
36384;DHT22;22418;51.210;6.976;2023-08-06T02:11:31;16.30;99.90
36384;DHT22;22418;51.210;6.976;2023-08-06T02:14:01;16.30;99.90
36384;DHT22;22418;51.210;6.976;2023-08-06T02:16:32;16.30;99.90
36384;DHT22;22418;51.210;6.976;2023-08-06T02:19:02;16.20;99.90
36384;DHT22;22418;51.210;6.976;2023-08-06T02:21:33;16.20;99.90
36384;DHT22;22418;51.210;6.976;2023-08-06T02:24:03;16.30;99.90
36384;DHT22;22418;51.210;6.976;2023-08-06T02:26:34;16.40;99.90
36384;DHT22;22418;51.210;6.976;2023-08-06T02:29:04;16.20;99.90
36384;DHT22;22418;51.210;6.976;2023-08-06T02:31:35;16.10;99.90
36384;DHT22;22418;51.210;6.976;2023-08-06T02:34:05;16.10;99.90
36384;DHT22;22418;51.210;6.976;2023-08-06T02:36:35;16.20;99.90
36384;DHT22;22418;51.210;6.976;2023-08-06T02:39:06;16.20;99.90
36384;DHT22;22418;51.210;6.976;2023-08-06T02:41:36;16.20;99.90
36384;DHT22;22418;51.210;6.976;2023-08-06T02:44:07;16.10;99.90
36384;DHT22;22418;51.210;6.976;2023-08-06T02:46:37;16.10;99.90
36384;DHT22;22418;51.210;6.976;2023-08-06T02:49:08;16.10;99.90
36384;DHT22;22418;51.210;6.976;2023-08-06T02:51:38;16.10;99.90
36384;DHT22;22418;51.210;6.976;2023-08-06T02:54:09;16.20;99.90
36384;DHT22;22418;51.210;6.976;2023-08-06T02:56:42;16.20;99.90
36384;DHT22;22418;51.210;6.976;2023-08-06T02:59:13;16.30;99.90
36384;DHT22;22418;51.210;6.976;2023-08-06T03:01:43;16.30;99.90
36384;DHT22;22418;51.210;6.976;2023-08-06T03:04:14;16.20;99.90
36384;DHT22;22418;51.210;6.976;2023-08-06T03:06:44;16.20;99.90
36384;DHT22;22418;51.210;6.976;2023-08-06T03:09:15;16.20;99.90
36384;DHT22;22418;51.210;6.976;2023-08-06T03:11:45;16.20;99.90
36384;DHT22;22418;51.210;6.976;2023-08-06T03:14:16;16.20;99.90
36384;DHT22;22418;51.210;6.976;2023-08-06T03:16:46;16.20;99.90
36384;DHT22;22418;51.210;6.976;2023-08-06T03:19:17;16.30;99.90
36384;DHT22;22418;51.210;6.976;2023-08-06T03:21:47;16.30;99.90
36384;DHT22;22418;51.210;6.976;2023-08-06T03:24:18;16.10;99.90
36384;DHT22;22418;51.210;6.976;2023-08-06T03:26:48;16.10;99.90
36384;DHT22;22418;51.210;6.976;2023-08-06T03:29:19;16.10;99.90
36384;DHT22;22418;51.210;6.976;2023-08-06T03:31:50;16.10;99.90
36384;DHT22;22418;51.210;6.976;2023-08-06T03:34:22;16.20;99.90
36384;DHT22;22418;51.210;6.976;2023-08-06T03:36:52;16.30;99.90
36384;DHT22;22418;51.210;6.976;2023-08-06T03:39:22;16.40;99.90
36384;DHT22;22418;51.210;6.976;2023-08-06T03:41:53;16.30;99.90
36384;DHT22;22418;51.210;6.976;2023-08-06T03:44:23;16.20;99.90
36384;DHT22;22418;51.210;6.976;2023-08-06T03:46:54;16.20;99.90
36384;DHT22;22418;51.210;6.976;2023-08-06T03:49:24;16.30;99.90
36384;DHT22;22418;51.210;6.976;2023-08-06T03:51:55;16.20;99.90
36384;DHT22;22418;51.210;6.976;2023-08-06T03:54:25;16.30;99.90
36384;DHT22;22418;51.210;6.976;2023-08-06T03:56:56;16.10;99.90
36384;DHT22;22418;51.210;6.976;2023-08-06T03:59:26;16.30;99.90
36384;DHT22;22418;51.210;6.976;2023-08-06T04:01:56;16.30;99.90
36384;DHT22;22418;51.210;6.976;2023-08-06T04:04:27;16.30;99.90
36384;DHT22;22418;51.210;6.976;2023-08-06T04:06:57;16.30;99.90
36384;DHT22;22418;51.210;6.976;2023-08-06T04:09:28;16.30;99.90
36384;DHT22;22418;51.210;6.976;2023-08-06T04:11:58;16.30;99.90
36384;DHT22;22418;51.210;6.976;2023-08-06T04:14:31;16.30;99.90
36384;DHT22;22418;51.210;6.976;2023-08-06T04:17:02;16.20;99.90
36384;DHT22;22418;51.210;6.976;2023-08-06T04:19:33;16.20;99.90
36384;DHT22;22418;51.210;6.976;2023-08-06T04:22:03;16.20;99.90
36384;DHT22;22418;51.210;6.976;2023-08-06T04:24:34;16.10;99.90
36384;DHT22;22418;51.210;6.976;2023-08-06T04:27:04;16.10;99.90
36384;DHT22;22418;51.210;6.976;2023-08-06T04:29:35;16.20;99.90
36384;DHT22;22418;51.210;6.976;2023-08-06T04:32:06;16.20;99.90
36384;DHT22;22418;51.210;6.976;2023-08-06T04:34:37;16.20;99.90
36384;DHT22;22418;51.210;6.976;2023-08-06T04:37:07;16.20;99.90
36384;DHT22;22418;51.210;6.976;2023-08-06T04:39:38;16.30;99.90
36384;DHT22;22418;51.210;6.976;2023-08-06T04:42:08;16.30;99.90
36384;DHT22;22418;51.210;6.976;2023-08-06T04:44:39;16.30;99.90
36384;DHT22;22418;51.210;6.976;2023-08-06T04:47:09;16.30;99.90
36384;DHT22;22418;51.210;6.976;2023-08-06T04:49:40;16.40;99.90
36384;DHT22;22418;51.210;6.976;2023-08-06T04:52:10;16.40;99.90
36384;DHT22;22418;51.210;6.976;2023-08-06T04:54:40;16.50;99.90
36384;DHT22;22418;51.210;6.976;2023-08-06T04:57:11;16.50;99.90
36384;DHT22;22418;51.210;6.976;2023-08-06T04:59:41;16.70;99.90
36384;DHT22;22418;51.210;6.976;2023-08-06T05:02:12;16.60;99.90
36384;DHT22;22418;51.210;6.976;2023-08-06T05:04:42;16.60;99.90
36384;DHT22;22418;51.210;6.976;2023-08-06T05:07:13;16.80;99.90
36384;DHT22;22418;51.210;6.976;2023-08-06T05:09:43;16.70;99.90
36384;DHT22;22418;51.210;6.976;2023-08-06T05:12:14;16.70;99.90
36384;DHT22;22418;51.210;6.976;2023-08-06T05:14:44;16.80;99.90
36384;DHT22;22418;51.210;6.976;2023-08-06T05:17:15;16.90;99.90
36384;DHT22;22418;51.210;6.976;2023-08-06T05:19:45;17.10;99.90
36384;DHT22;22418;51.210;6.976;2023-08-06T05:22:16;17.30;99.90
36384;DHT22;22418;51.210;6.976;2023-08-06T05:24:46;17.60;99.90
36384;DHT22;22418;51.210;6.976;2023-08-06T05:27:17;17.80;99.90
36384;DHT22;22418;51.210;6.976;2023-08-06T05:29:49;18.10;99.90
36384;DHT22;22418;51.210;6.976;2023-08-06T05:32:19;18.30;99.90
36384;DHT22;22418;51.210;6.976;2023-08-06T05:34:50;18.60;99.90
36384;DHT22;22418;51.210;6.976;2023-08-06T05:37:20;18.90;99.90
36384;DHT22;22418;51.210;6.976;2023-08-06T05:39:51;19.00;99.90
36384;DHT22;22418;51.210;6.976;2023-08-06T05:42:21;19.10;99.90
36384;DHT22;22418;51.210;6.976;2023-08-06T05:44:51;18.80;99.90
36384;DHT22;22418;51.210;6.976;2023-08-06T05:47:22;18.70;99.90
36384;DHT22;22418;51.210;6.976;2023-08-06T05:49:52;18.50;99.90
36384;DHT22;22418;51.210;6.976;2023-08-06T05:52:23;18.30;99.90
36384;DHT22;22418;51.210;6.976;2023-08-06T05:54:53;18.30;99.90
36384;DHT22;22418;51.210;6.976;2023-08-06T05:57:25;18.30;99.90
36384;DHT22;22418;51.210;6.976;2023-08-06T05:59:55;18.20;99.90
36384;DHT22;22418;51.210;6.976;2023-08-06T06:02:26;18.20;99.90
36384;DHT22;22418;51.210;6.976;2023-08-06T06:04:56;18.20;99.90
36384;DHT22;22418;51.210;6.976;2023-08-06T06:07:27;18.20;99.90
36384;DHT22;22418;51.210;6.976;2023-08-06T06:09:57;18.10;99.90
36384;DHT22;22418;51.210;6.976;2023-08-06T06:12:28;18.00;99.90
36384;DHT22;22418;51.210;6.976;2023-08-06T06:14:58;18.00;99.90
36384;DHT22;22418;51.210;6.976;2023-08-06T06:17:31;18.10;99.90
36384;DHT22;22418;51.210;6.976;2023-08-06T06:20:01;18.00;99.90
36384;DHT22;22418;51.210;6.976;2023-08-06T06:22:34;18.00;99.90
36384;DHT22;22418;51.210;6.976;2023-08-06T06:25:05;18.00;99.90
36384;DHT22;22418;51.210;6.976;2023-08-06T06:27:35;18.00;99.90
36384;DHT22;22418;51.210;6.976;2023-08-06T06:30:06;18.00;99.90
36384;DHT22;22418;51.210;6.976;2023-08-06T06:32:36;17.90;99.90
36384;DHT22;22418;51.210;6.976;2023-08-06T06:35:07;18.10;99.90
36384;DHT22;22418;51.210;6.976;2023-08-06T06:37:38;18.40;99.90
36384;DHT22;22418;51.210;6.976;2023-08-06T06:40:08;18.50;99.90
36384;DHT22;22418;51.210;6.976;2023-08-06T06:42:39;18.70;99.90
36384;DHT22;22418;51.210;6.976;2023-08-06T06:45:09;19.00;99.90
36384;DHT22;22418;51.210;6.976;2023-08-06T06:47:40;19.20;99.90
36384;DHT22;22418;51.210;6.976;2023-08-06T06:50:10;19.30;99.90
36384;DHT22;22418;51.210;6.976;2023-08-06T06:52:41;19.30;99.90
36384;DHT22;22418;51.210;6.976;2023-08-06T06:55:11;19.20;99.90
36384;DHT22;22418;51.210;6.976;2023-08-06T06:57:42;19.20;99.90
36384;DHT22;22418;51.210;6.976;2023-08-06T07:00:12;19.20;99.90
36384;DHT22;22418;51.210;6.976;2023-08-06T07:02:43;19.30;99.90
36384;DHT22;22418;51.210;6.976;2023-08-06T07:05:13;19.30;99.90
36384;DHT22;22418;51.210;6.976;2023-08-06T07:07:44;19.20;99.90
36384;DHT22;22418;51.210;6.976;2023-08-06T07:10:14;19.00;99.90
36384;DHT22;22418;51.210;6.976;2023-08-06T07:12:45;18.90;99.90
36384;DHT22;22418;51.210;6.976;2023-08-06T07:15:15;18.90;99.90
36384;DHT22;22418;51.210;6.976;2023-08-06T07:17:47;18.80;99.90
36384;DHT22;22418;51.210;6.976;2023-08-06T07:20:18;18.70;99.90
36384;DHT22;22418;51.210;6.976;2023-08-06T07:22:48;18.70;99.90
36384;DHT22;22418;51.210;6.976;2023-08-06T07:25:20;18.60;99.90
36384;DHT22;22418;51.210;6.976;2023-08-06T07:27:50;18.60;99.90
36384;DHT22;22418;51.210;6.976;2023-08-06T07:30:21;18.70;99.90
36384;DHT22;22418;51.210;6.976;2023-08-06T07:32:52;18.80;99.90
36384;DHT22;22418;51.210;6.976;2023-08-06T07:35:22;18.70;99.90
36384;DHT22;22418;51.210;6.976;2023-08-06T07:37:53;18.70;99.90
36384;DHT22;22418;51.210;6.976;2023-08-06T07:40:23;18.70;99.90
36384;DHT22;22418;51.210;6.976;2023-08-06T07:42:54;18.70;99.90
36384;DHT22;22418;51.210;6.976;2023-08-06T07:45:24;18.80;99.90
36384;DHT22;22418;51.210;6.976;2023-08-06T07:47:57;19.00;99.90
36384;DHT22;22418;51.210;6.976;2023-08-06T07:50:27;19.00;99.90
36384;DHT22;22418;51.210;6.976;2023-08-06T07:52:57;19.10;99.90
36384;DHT22;22418;51.210;6.976;2023-08-06T07:55:28;19.10;99.90
36384;DHT22;22418;51.210;6.976;2023-08-06T07:57:58;19.10;99.90
36384;DHT22;22418;51.210;6.976;2023-08-06T08:00:29;19.20;99.90
36384;DHT22;22418;51.210;6.976;2023-08-06T08:02:59;19.30;99.90
36384;DHT22;22418;51.210;6.976;2023-08-06T08:05:30;19.40;99.90
36384;DHT22;22418;51.210;6.976;2023-08-06T08:08:00;19.50;99.90
36384;DHT22;22418;51.210;6.976;2023-08-06T08:10:31;19.70;99.90
36384;DHT22;22418;51.210;6.976;2023-08-06T08:13:02;19.80;99.90
36384;DHT22;22418;51.210;6.976;2023-08-06T08:15:32;19.90;99.90
36384;DHT22;22418;51.210;6.976;2023-08-06T08:18:03;20.00;99.90
36384;DHT22;22418;51.210;6.976;2023-08-06T08:20:33;20.10;99.90
36384;DHT22;22418;51.210;6.976;2023-08-06T08:23:05;20.10;99.90
36384;DHT22;22418;51.210;6.976;2023-08-06T08:25:36;20.20;99.90
36384;DHT22;22418;51.210;6.976;2023-08-06T08:28:06;20.20;99.90
36384;DHT22;22418;51.210;6.976;2023-08-06T08:30:37;20.40;99.90
36384;DHT22;22418;51.210;6.976;2023-08-06T08:33:07;20.20;99.90
36384;DHT22;22418;51.210;6.976;2023-08-06T08:35:38;20.20;99.90
36384;DHT22;22418;51.210;6.976;2023-08-06T08:38:08;20.30;99.90
36384;DHT22;22418;51.210;6.976;2023-08-06T08:40:41;20.40;99.90
36384;DHT22;22418;51.210;6.976;2023-08-06T08:43:13;20.60;99.90
36384;DHT22;22418;51.210;6.976;2023-08-06T08:45:44;20.80;99.90
36384;DHT22;22418;51.210;6.976;2023-08-06T08:48:17;21.10;99.90
36384;DHT22;22418;51.210;6.976;2023-08-06T08:50:48;21.40;99.90
36384;DHT22;22418;51.210;6.976;2023-08-06T08:53:19;21.80;99.90
36384;DHT22;22418;51.210;6.976;2023-08-06T08:55:51;22.40;99.90
36384;DHT22;22418;51.210;6.976;2023-08-06T08:58:23;22.80;99.90
36384;DHT22;22418;51.210;6.976;2023-08-06T09:00:53;22.80;99.90
36384;DHT22;22418;51.210;6.976;2023-08-06T09:03:24;22.70;99.90
36384;DHT22;22418;51.210;6.976;2023-08-06T09:05:55;22.30;99.90
36384;DHT22;22418;51.210;6.976;2023-08-06T09:08:27;21.90;99.90
36384;DHT22;22418;51.210;6.976;2023-08-06T09:11:00;21.50;99.90
36384;DHT22;22418;51.210;6.976;2023-08-06T09:13:31;21.20;99.90
36384;DHT22;22418;51.210;6.976;2023-08-06T09:16:02;21.20;99.90
36384;DHT22;22418;51.210;6.976;2023-08-06T09:18:32;21.00;99.90
36384;DHT22;22418;51.210;6.976;2023-08-06T09:21:03;21.10;99.90
36384;DHT22;22418;51.210;6.976;2023-08-06T09:23:33;21.20;99.90
36384;DHT22;22418;51.210;6.976;2023-08-06T09:26:04;21.20;99.90
36384;DHT22;22418;51.210;6.976;2023-08-06T09:28:37;21.20;99.90
36384;DHT22;22418;51.210;6.976;2023-08-06T09:31:13;21.10;99.90
36384;DHT22;22418;51.210;6.976;2023-08-06T09:33:43;21.10;99.90
36384;DHT22;22418;51.210;6.976;2023-08-06T09:36:15;21.20;99.90
36384;DHT22;22418;51.210;6.976;2023-08-06T09:38:45;21.30;99.90
36384;DHT22;22418;51.210;6.976;2023-08-06T09:41:28;21.50;99.90
36384;DHT22;22418;51.210;6.976;2023-08-06T09:43:59;21.80;99.90
36384;DHT22;22418;51.210;6.976;2023-08-06T09:46:30;22.10;99.90
36384;DHT22;22418;51.210;6.976;2023-08-06T09:49:02;22.30;99.90
36384;DHT22;22418;51.210;6.976;2023-08-06T09:51:34;22.30;99.90
36384;DHT22;22418;51.210;6.976;2023-08-06T09:54:05;22.40;99.90
36384;DHT22;22418;51.210;6.976;2023-08-06T09:56:36;22.40;99.90
36384;DHT22;22418;51.210;6.976;2023-08-06T09:59:08;22.50;99.90
36384;DHT22;22418;51.210;6.976;2023-08-06T10:01:38;22.60;99.90
36384;DHT22;22418;51.210;6.976;2023-08-06T10:04:09;22.30;99.90
36384;DHT22;22418;51.210;6.976;2023-08-06T10:06:42;21.90;99.90
36384;DHT22;22418;51.210;6.976;2023-08-06T10:09:13;21.50;99.90
36384;DHT22;22418;51.210;6.976;2023-08-06T10:11:44;21.10;99.90
36384;DHT22;22418;51.210;6.976;2023-08-06T10:14:23;20.70;99.90
36384;DHT22;22418;51.210;6.976;2023-08-06T10:16:56;20.20;99.90
36384;DHT22;22418;51.210;6.976;2023-08-06T10:19:27;19.90;99.90
36384;DHT22;22418;51.210;6.976;2023-08-06T10:22:12;19.80;99.90
36384;DHT22;22418;51.210;6.976;2023-08-06T10:27:32;19.60;99.90
36384;DHT22;22418;51.210;6.976;2023-08-06T10:32:56;19.30;99.90
36384;DHT22;22418;51.210;6.976;2023-08-06T10:38:08;19.00;99.90
36384;DHT22;22418;51.210;6.976;2023-08-06T10:40:40;18.90;99.90
36384;DHT22;22418;51.210;6.976;2023-08-06T10:43:25;18.80;99.90
36384;DHT22;22418;51.210;6.976;2023-08-06T10:45:57;18.60;99.90
36384;DHT22;22418;51.210;6.976;2023-08-06T10:48:29;18.50;99.90
36384;DHT22;22418;51.210;6.976;2023-08-06T10:51:00;18.40;99.90
36384;DHT22;22418;51.210;6.976;2023-08-06T10:53:31;18.30;99.90
36384;DHT22;22418;51.210;6.976;2023-08-06T10:56:01;18.30;99.90
36384;DHT22;22418;51.210;6.976;2023-08-06T10:58:32;18.10;99.90
36384;DHT22;22418;51.210;6.976;2023-08-06T11:01:07;18.10;99.90
36384;DHT22;22418;51.210;6.976;2023-08-06T11:03:38;18.10;99.90
36384;DHT22;22418;51.210;6.976;2023-08-06T11:06:09;18.00;99.90
36384;DHT22;22418;51.210;6.976;2023-08-06T11:08:40;17.90;99.90
36384;DHT22;22418;51.210;6.976;2023-08-06T11:11:17;17.80;99.90
36384;DHT22;22418;51.210;6.976;2023-08-06T11:13:48;17.70;99.90
36384;DHT22;22418;51.210;6.976;2023-08-06T11:16:19;17.70;99.90
36384;DHT22;22418;51.210;6.976;2023-08-06T11:18:50;17.70;99.90
36384;DHT22;22418;51.210;6.976;2023-08-06T11:21:21;17.70;99.90
36384;DHT22;22418;51.210;6.976;2023-08-06T11:23:52;17.70;99.90
36384;DHT22;22418;51.210;6.976;2023-08-06T11:26:23;17.70;99.90
36384;DHT22;22418;51.210;6.976;2023-08-06T11:28:53;17.70;99.90
36384;DHT22;22418;51.210;6.976;2023-08-06T11:31:24;17.70;99.90
36384;DHT22;22418;51.210;6.976;2023-08-06T11:33:54;17.60;99.90
36384;DHT22;22418;51.210;6.976;2023-08-06T11:36:37;17.60;99.90
36384;DHT22;22418;51.210;6.976;2023-08-06T11:39:09;17.60;99.90
36384;DHT22;22418;51.210;6.976;2023-08-06T11:41:40;17.60;99.90
36384;DHT22;22418;51.210;6.976;2023-08-06T11:44:12;17.50;99.90
36384;DHT22;22418;51.210;6.976;2023-08-06T11:46:52;17.50;99.90
36384;DHT22;22418;51.210;6.976;2023-08-06T11:52:18;17.40;99.90
36384;DHT22;22418;51.210;6.976;2023-08-06T11:57:43;17.40;99.90
36384;DHT22;22418;51.210;6.976;2023-08-06T12:00:14;17.40;99.90
36384;DHT22;22418;51.210;6.976;2023-08-06T12:02:45;17.30;99.90
36384;DHT22;22418;51.210;6.976;2023-08-06T12:05:17;17.30;99.90
36384;DHT22;22418;51.210;6.976;2023-08-06T12:07:49;17.20;99.90
36384;DHT22;22418;51.210;6.976;2023-08-06T12:10:20;17.30;99.90
36384;DHT22;22418;51.210;6.976;2023-08-06T12:12:51;17.30;99.90
36384;DHT22;22418;51.210;6.976;2023-08-06T12:15:21;17.30;99.90
36384;DHT22;22418;51.210;6.976;2023-08-06T12:17:52;17.30;99.90
36384;DHT22;22418;51.210;6.976;2023-08-06T12:20:23;17.30;99.90
36384;DHT22;22418;51.210;6.976;2023-08-06T12:22:53;17.30;99.90
36384;DHT22;22418;51.210;6.976;2023-08-06T12:25:23;17.30;99.90
36384;DHT22;22418;51.210;6.976;2023-08-06T12:27:54;17.30;99.90
36384;DHT22;22418;51.210;6.976;2023-08-06T12:30:25;17.30;99.90
36384;DHT22;22418;51.210;6.976;2023-08-06T12:32:55;17.20;99.90
36384;DHT22;22418;51.210;6.976;2023-08-06T12:35:25;17.20;99.90
36384;DHT22;22418;51.210;6.976;2023-08-06T12:37:56;17.20;99.90
36384;DHT22;22418;51.210;6.976;2023-08-06T12:40:27;17.20;99.90
36384;DHT22;22418;51.210;6.976;2023-08-06T12:42:58;17.20;99.90
36384;DHT22;22418;51.210;6.976;2023-08-06T12:45:29;17.20;99.90
36384;DHT22;22418;51.210;6.976;2023-08-06T12:48:02;17.20;99.90
36384;DHT22;22418;51.210;6.976;2023-08-06T12:50:33;17.20;99.90
36384;DHT22;22418;51.210;6.976;2023-08-06T12:53:04;17.20;99.90
36384;DHT22;22418;51.210;6.976;2023-08-06T12:55:35;17.20;99.90
36384;DHT22;22418;51.210;6.976;2023-08-06T12:58:06;17.30;99.90
36384;DHT22;22418;51.210;6.976;2023-08-06T13:00:36;17.20;99.90
36384;DHT22;22418;51.210;6.976;2023-08-06T13:03:07;17.20;99.90
36384;DHT22;22418;51.210;6.976;2023-08-06T13:05:37;17.20;99.90
36384;DHT22;22418;51.210;6.976;2023-08-06T13:08:08;17.30;99.90
36384;DHT22;22418;51.210;6.976;2023-08-06T13:10:38;17.20;99.90
36384;DHT22;22418;51.210;6.976;2023-08-06T13:13:09;17.30;99.90
36384;DHT22;22418;51.210;6.976;2023-08-06T13:15:40;17.20;99.90
36384;DHT22;22418;51.210;6.976;2023-08-06T13:18:11;17.10;99.90
36384;DHT22;22418;51.210;6.976;2023-08-06T13:20:41;17.10;99.90
36384;DHT22;22418;51.210;6.976;2023-08-06T13:23:12;17.00;99.90
36384;DHT22;22418;51.210;6.976;2023-08-06T13:25:45;17.10;99.90
36384;DHT22;22418;51.210;6.976;2023-08-06T13:28:16;17.10;99.90
36384;DHT22;22418;51.210;6.976;2023-08-06T13:30:46;17.10;99.90
36384;DHT22;22418;51.210;6.976;2023-08-06T13:33:17;17.10;99.90
36384;DHT22;22418;51.210;6.976;2023-08-06T13:35:47;17.20;99.90
36384;DHT22;22418;51.210;6.976;2023-08-06T13:38:18;17.10;99.90
36384;DHT22;22418;51.210;6.976;2023-08-06T13:40:48;17.20;99.90
36384;DHT22;22418;51.210;6.976;2023-08-06T13:43:19;17.10;99.90
36384;DHT22;22418;51.210;6.976;2023-08-06T13:45:49;17.10;99.90
36384;DHT22;22418;51.210;6.976;2023-08-06T13:48:20;17.20;99.90
36384;DHT22;22418;51.210;6.976;2023-08-06T13:50:50;17.20;99.90
36384;DHT22;22418;51.210;6.976;2023-08-06T13:53:21;17.20;99.90
36384;DHT22;22418;51.210;6.976;2023-08-06T13:55:51;17.30;99.90
36384;DHT22;22418;51.210;6.976;2023-08-06T13:58:22;17.40;99.90
36384;DHT22;22418;51.210;6.976;2023-08-06T14:00:52;17.50;99.90
36384;DHT22;22418;51.210;6.976;2023-08-06T14:03:24;17.50;99.90
36384;DHT22;22418;51.210;6.976;2023-08-06T14:05:54;17.50;99.90
36384;DHT22;22418;51.210;6.976;2023-08-06T14:08:28;17.40;99.90
36384;DHT22;22418;51.210;6.976;2023-08-06T14:10:58;17.40;99.90
36384;DHT22;22418;51.210;6.976;2023-08-06T14:13:29;17.40;99.90
36384;DHT22;22418;51.210;6.976;2023-08-06T14:16:00;17.50;99.90
36384;DHT22;22418;51.210;6.976;2023-08-06T14:18:30;17.60;99.90
36384;DHT22;22418;51.210;6.976;2023-08-06T14:21:01;17.60;99.90
36384;DHT22;22418;51.210;6.976;2023-08-06T14:23:31;17.60;99.90
36384;DHT22;22418;51.210;6.976;2023-08-06T14:26:01;17.60;99.90
36384;DHT22;22418;51.210;6.976;2023-08-06T14:28:32;17.70;99.90
36384;DHT22;22418;51.210;6.976;2023-08-06T14:31:02;17.80;99.90
36384;DHT22;22418;51.210;6.976;2023-08-06T14:33:33;17.90;99.90
36384;DHT22;22418;51.210;6.976;2023-08-06T14:36:03;18.00;99.90
36384;DHT22;22418;51.210;6.976;2023-08-06T14:38:34;18.00;99.90
36384;DHT22;22418;51.210;6.976;2023-08-06T14:41:04;18.10;99.90
36384;DHT22;22418;51.210;6.976;2023-08-06T14:43:36;18.10;99.90
36384;DHT22;22418;51.210;6.976;2023-08-06T14:46:06;18.20;99.90
36384;DHT22;22418;51.210;6.976;2023-08-06T14:48:37;18.20;99.90
36384;DHT22;22418;51.210;6.976;2023-08-06T14:51:08;18.20;99.90
36384;DHT22;22418;51.210;6.976;2023-08-06T14:53:38;18.20;99.90
36384;DHT22;22418;51.210;6.976;2023-08-06T14:56:09;18.20;99.90
36384;DHT22;22418;51.210;6.976;2023-08-06T14:58:40;18.20;99.90
36384;DHT22;22418;51.210;6.976;2023-08-06T15:01:10;18.20;99.90
36384;DHT22;22418;51.210;6.976;2023-08-06T15:03:41;18.20;99.90
36384;DHT22;22418;51.210;6.976;2023-08-06T15:06:11;18.30;99.90
36384;DHT22;22418;51.210;6.976;2023-08-06T15:08:42;18.30;99.90
36384;DHT22;22418;51.210;6.976;2023-08-06T15:11:15;18.30;99.90
36384;DHT22;22418;51.210;6.976;2023-08-06T15:13:46;18.30;99.90
36384;DHT22;22418;51.210;6.976;2023-08-06T15:16:16;18.30;99.90
36384;DHT22;22418;51.210;6.976;2023-08-06T15:18:46;18.20;99.90
36384;DHT22;22418;51.210;6.976;2023-08-06T15:21:18;18.10;99.90
36384;DHT22;22418;51.210;6.976;2023-08-06T15:23:49;18.10;99.90
36384;DHT22;22418;51.210;6.976;2023-08-06T15:26:19;18.10;99.90
36384;DHT22;22418;51.210;6.976;2023-08-06T15:28:51;18.20;99.90
36384;DHT22;22418;51.210;6.976;2023-08-06T15:31:21;18.20;99.90
36384;DHT22;22418;51.210;6.976;2023-08-06T15:33:52;18.30;99.90
36384;DHT22;22418;51.210;6.976;2023-08-06T15:36:22;18.30;99.90
36384;DHT22;22418;51.210;6.976;2023-08-06T15:38:53;18.50;99.90
36384;DHT22;22418;51.210;6.976;2023-08-06T15:41:23;18.40;99.90
36384;DHT22;22418;51.210;6.976;2023-08-06T15:43:54;18.50;99.90
36384;DHT22;22418;51.210;6.976;2023-08-06T15:46:24;18.50;99.90
36384;DHT22;22418;51.210;6.976;2023-08-06T15:48:54;18.60;99.90
36384;DHT22;22418;51.210;6.976;2023-08-06T15:51:25;18.60;99.90
36384;DHT22;22418;51.210;6.976;2023-08-06T15:53:55;18.70;99.90
36384;DHT22;22418;51.210;6.976;2023-08-06T15:56:26;18.70;99.90
36384;DHT22;22418;51.210;6.976;2023-08-06T15:58:56;18.70;99.90
36384;DHT22;22418;51.210;6.976;2023-08-06T16:01:27;18.70;99.90
36384;DHT22;22418;51.210;6.976;2023-08-06T16:03:57;18.60;99.90
36384;DHT22;22418;51.210;6.976;2023-08-06T16:06:28;18.60;99.90
36384;DHT22;22418;51.210;6.976;2023-08-06T16:08:58;18.60;99.90
36384;DHT22;22418;51.210;6.976;2023-08-06T16:11:29;18.50;99.90
36384;DHT22;22418;51.210;6.976;2023-08-06T16:13:59;18.50;99.90